sensor_id;sensor_type;location;lat;lon;timestamp;temperature;humidity
32600;DHT22;19277;51.778;7.912;2023-02-21T00:02:09;19.90;78.40
32600;DHT22;19277;51.778;7.912;2023-02-21T00:04:54;19.90;78.40
32600;DHT22;19277;51.778;7.912;2023-02-21T00:07:38;19.90;78.40
32600;DHT22;19277;51.778;7.912;2023-02-21T00:10:23;19.90;78.40
32600;DHT22;19277;51.778;7.912;2023-02-21T00:13:07;19.90;78.30
32600;DHT22;19277;51.778;7.912;2023-02-21T00:15:51;19.90;78.80
32600;DHT22;19277;51.778;7.912;2023-02-21T00:18:36;20.00;79.10
32600;DHT22;19277;51.778;7.912;2023-02-21T00:21:20;19.90;79.10
32600;DHT22;19277;51.778;7.912;2023-02-21T00:24:05;20.00;79.10
32600;DHT22;19277;51.778;7.912;2023-02-21T00:26:49;20.00;79.10
32600;DHT22;19277;51.778;7.912;2023-02-21T00:29:33;20.00;79.00
32600;DHT22;19277;51.778;7.912;2023-02-21T00:32:17;20.10;78.90
32600;DHT22;19277;51.778;7.912;2023-02-21T00:35:01;20.00;78.90
32600;DHT22;19277;51.778;7.912;2023-02-21T00:37:51;20.00;78.90
32600;DHT22;19277;51.778;7.912;2023-02-21T00:40:35;20.10;79.10
32600;DHT22;19277;51.778;7.912;2023-02-21T00:43:27;20.10;79.10
32600;DHT22;19277;51.778;7.912;2023-02-21T00:46:11;20.10;79.20
32600;DHT22;19277;51.778;7.912;2023-02-21T00:48:55;20.10;79.30
32600;DHT22;19277;51.778;7.912;2023-02-21T00:51:39;20.10;79.40
32600;DHT22;19277;51.778;7.912;2023-02-21T00:54:23;20.20;79.50
32600;DHT22;19277;51.778;7.912;2023-02-21T00:57:07;20.20;79.40
32600;DHT22;19277;51.778;7.912;2023-02-21T00:59:51;20.20;79.40
32600;DHT22;19277;51.778;7.912;2023-02-21T01:02:35;20.20;79.40
32600;DHT22;19277;51.778;7.912;2023-02-21T01:05:19;20.20;79.30
32600;DHT22;19277;51.778;7.912;2023-02-21T01:08:03;20.20;79.20
32600;DHT22;19277;51.778;7.912;2023-02-21T01:10:47;20.30;79.20
32600;DHT22;19277;51.778;7.912;2023-02-21T01:13:31;20.30;79.40
32600;DHT22;19277;51.778;7.912;2023-02-21T01:16:15;20.30;79.20
32600;DHT22;19277;51.778;7.912;2023-02-21T01:18:59;20.30;79.20
32600;DHT22;19277;51.778;7.912;2023-02-21T01:21:43;20.30;79.80
32600;DHT22;19277;51.778;7.912;2023-02-21T01:24:27;20.30;79.30
32600;DHT22;19277;51.778;7.912;2023-02-21T01:27:11;20.30;79.30
32600;DHT22;19277;51.778;7.912;2023-02-21T01:29:56;20.30;79.40
32600;DHT22;19277;51.778;7.912;2023-02-21T01:32:39;20.40;79.30
32600;DHT22;19277;51.778;7.912;2023-02-21T01:35:23;20.40;79.30
32600;DHT22;19277;51.778;7.912;2023-02-21T01:38:07;20.40;79.20
32600;DHT22;19277;51.778;7.912;2023-02-21T01:40:51;20.40;79.30
32600;DHT22;19277;51.778;7.912;2023-02-21T01:43:35;20.40;79.20
32600;DHT22;19277;51.778;7.912;2023-02-21T01:46:20;20.40;79.30
32600;DHT22;19277;51.778;7.912;2023-02-21T01:49:13;20.40;79.30
32600;DHT22;19277;51.778;7.912;2023-02-21T01:51:59;20.40;79.60
32600;DHT22;19277;51.778;7.912;2023-02-21T01:54:47;20.40;79.70
32600;DHT22;19277;51.778;7.912;2023-02-21T01:57:34;20.40;79.70
32600;DHT22;19277;51.778;7.912;2023-02-21T02:00:18;20.40;79.80
32600;DHT22;19277;51.778;7.912;2023-02-21T02:03:09;20.40;79.90
32600;DHT22;19277;51.778;7.912;2023-02-21T02:06:00;20.40;80.20
32600;DHT22;19277;51.778;7.912;2023-02-21T02:08:45;20.40;80.20
32600;DHT22;19277;51.778;7.912;2023-02-21T02:11:54;20.40;80.30
32600;DHT22;19277;51.778;7.912;2023-02-21T02:35:59;20.50;81.00
32600;DHT22;19277;51.778;7.912;2023-02-21T02:40:58;20.50;81.00
32600;DHT22;19277;51.778;7.912;2023-02-21T02:48:29;20.50;81.00
32600;DHT22;19277;51.778;7.912;2023-02-21T02:50:57;20.50;81.10
32600;DHT22;19277;51.778;7.912;2023-02-21T02:53:27;20.50;81.00
32600;DHT22;19277;51.778;7.912;2023-02-21T02:56:00;20.50;80.90
32600;DHT22;19277;51.778;7.912;2023-02-21T02:58:30;20.50;81.10
32600;DHT22;19277;51.778;7.912;2023-02-21T03:01:12;20.50;81.00
32600;DHT22;19277;51.778;7.912;2023-02-21T03:03:51;20.50;80.80
32600;DHT22;19277;51.778;7.912;2023-02-21T03:09:14;20.50;80.80
32600;DHT22;19277;51.778;7.912;2023-02-21T03:12:07;20.50;80.90
32600;DHT22;19277;51.778;7.912;2023-02-21T03:14:39;20.50;80.70
32600;DHT22;19277;51.778;7.912;2023-02-21T03:17:10;20.50;80.80
32600;DHT22;19277;51.778;7.912;2023-02-21T03:19:39;20.50;80.70
32600;DHT22;19277;51.778;7.912;2023-02-21T03:22:07;20.50;80.70
32600;DHT22;19277;51.778;7.912;2023-02-21T03:24:36;20.50;80.70
32600;DHT22;19277;51.778;7.912;2023-02-21T03:27:05;20.50;80.70
32600;DHT22;19277;51.778;7.912;2023-02-21T03:29:33;20.50;80.80
32600;DHT22;19277;51.778;7.912;2023-02-21T03:32:04;20.50;80.70
32600;DHT22;19277;51.778;7.912;2023-02-21T03:34:41;20.50;80.80
32600;DHT22;19277;51.778;7.912;2023-02-21T03:37:10;20.50;81.00
32600;DHT22;19277;51.778;7.912;2023-02-21T03:39:35;20.50;80.70
32600;DHT22;19277;51.778;7.912;2023-02-21T03:42:01;20.60;80.70
32600;DHT22;19277;51.778;7.912;2023-02-21T03:44:27;20.60;80.70
32600;DHT22;19277;51.778;7.912;2023-02-21T03:46:53;20.60;80.70
32600;DHT22;19277;51.778;7.912;2023-02-21T03:49:18;20.60;80.70
32600;DHT22;19277;51.778;7.912;2023-02-21T03:51:44;20.60;80.70
32600;DHT22;19277;51.778;7.912;2023-02-21T03:54:09;20.60;80.80
32600;DHT22;19277;51.778;7.912;2023-02-21T03:56:35;20.60;80.80
32600;DHT22;19277;51.778;7.912;2023-02-21T03:59:01;20.60;81.00
32600;DHT22;19277;51.778;7.912;2023-02-21T04:01:26;20.50;80.90
32600;DHT22;19277;51.778;7.912;2023-02-21T04:03:52;20.50;81.00
32600;DHT22;19277;51.778;7.912;2023-02-21T04:06:17;20.50;81.10
32600;DHT22;19277;51.778;7.912;2023-02-21T04:08:43;20.50;81.20
32600;DHT22;19277;51.778;7.912;2023-02-21T04:11:08;20.50;81.20
32600;DHT22;19277;51.778;7.912;2023-02-21T04:13:34;20.50;81.30
32600;DHT22;19277;51.778;7.912;2023-02-21T04:15:59;20.50;81.40
32600;DHT22;19277;51.778;7.912;2023-02-21T04:18:25;20.50;81.40
32600;DHT22;19277;51.778;7.912;2023-02-21T04:20:51;20.50;81.40
32600;DHT22;19277;51.778;7.912;2023-02-21T04:23:18;20.50;81.50
32600;DHT22;19277;51.778;7.912;2023-02-21T04:25:44;20.50;81.60
32600;DHT22;19277;51.778;7.912;2023-02-21T04:28:12;20.50;81.60
32600;DHT22;19277;51.778;7.912;2023-02-21T04:30:37;20.50;81.60
32600;DHT22;19277;51.778;7.912;2023-02-21T04:33:03;20.50;81.60
32600;DHT22;19277;51.778;7.912;2023-02-21T04:35:29;20.50;81.60
32600;DHT22;19277;51.778;7.912;2023-02-21T04:37:54;20.50;81.60
32600;DHT22;19277;51.778;7.912;2023-02-21T04:40:20;20.50;81.70
32600;DHT22;19277;51.778;7.912;2023-02-21T04:42:46;20.40;81.70
32600;DHT22;19277;51.778;7.912;2023-02-21T04:45:12;20.50;81.80
32600;DHT22;19277;51.778;7.912;2023-02-21T04:47:37;20.40;81.70
32600;DHT22;19277;51.778;7.912;2023-02-21T04:50:03;20.40;81.80
32600;DHT22;19277;51.778;7.912;2023-02-21T04:52:29;20.40;82.00
32600;DHT22;19277;51.778;7.912;2023-02-21T04:54:55;20.40;82.00
32600;DHT22;19277;51.778;7.912;2023-02-21T04:57:21;20.40;82.10
32600;DHT22;19277;51.778;7.912;2023-02-21T04:59:47;20.40;82.10
32600;DHT22;19277;51.778;7.912;2023-02-21T05:02:12;20.40;82.10
32600;DHT22;19277;51.778;7.912;2023-02-21T05:04:38;20.40;82.10
32600;DHT22;19277;51.778;7.912;2023-02-21T05:07:04;20.40;82.10
32600;DHT22;19277;51.778;7.912;2023-02-21T05:09:30;20.40;82.20
32600;DHT22;19277;51.778;7.912;2023-02-21T05:11:56;20.40;82.20
32600;DHT22;19277;51.778;7.912;2023-02-21T05:14:22;20.40;82.20
32600;DHT22;19277;51.778;7.912;2023-02-21T05:16:47;20.40;82.40
32600;DHT22;19277;51.778;7.912;2023-02-21T05:19:20;20.40;82.30
32600;DHT22;19277;51.778;7.912;2023-02-21T05:21:55;20.40;82.40
32600;DHT22;19277;51.778;7.912;2023-02-21T05:24:21;20.40;82.50
32600;DHT22;19277;51.778;7.912;2023-02-21T05:26:46;20.40;82.70
32600;DHT22;19277;51.778;7.912;2023-02-21T05:29:12;20.40;82.70
32600;DHT22;19277;51.778;7.912;2023-02-21T05:31:37;20.40;82.80
32600;DHT22;19277;51.778;7.912;2023-02-21T05:34:03;20.40;82.90
32600;DHT22;19277;51.778;7.912;2023-02-21T05:36:28;20.40;83.00
32600;DHT22;19277;51.778;7.912;2023-02-21T05:38:54;20.40;83.10
32600;DHT22;19277;51.778;7.912;2023-02-21T05:41:20;20.40;83.80
32600;DHT22;19277;51.778;7.912;2023-02-21T05:43:47;20.40;83.40
32600;DHT22;19277;51.778;7.912;2023-02-21T05:48:50;20.50;83.70
32600;DHT22;19277;51.778;7.912;2023-02-21T05:51:16;20.40;83.80
32600;DHT22;19277;51.778;7.912;2023-02-21T05:53:41;20.50;84.00
32600;DHT22;19277;51.778;7.912;2023-02-21T05:56:07;20.50;84.20
32600;DHT22;19277;51.778;7.912;2023-02-21T05:58:33;20.50;84.00
32600;DHT22;19277;51.778;7.912;2023-02-21T06:00:59;20.40;83.80
32600;DHT22;19277;51.778;7.912;2023-02-21T06:03:24;20.50;83.90
32600;DHT22;19277;51.778;7.912;2023-02-21T06:05:50;20.40;83.90
32600;DHT22;19277;51.778;7.912;2023-02-21T06:08:15;20.50;84.10
32600;DHT22;19277;51.778;7.912;2023-02-21T06:10:41;20.40;84.20
32600;DHT22;19277;51.778;7.912;2023-02-21T06:13:06;20.40;84.30
32600;DHT22;19277;51.778;7.912;2023-02-21T06:15:32;20.40;84.40
32600;DHT22;19277;51.778;7.912;2023-02-21T06:17:57;20.40;84.60
32600;DHT22;19277;51.778;7.912;2023-02-21T06:20:23;20.40;84.60
32600;DHT22;19277;51.778;7.912;2023-02-21T06:22:48;20.40;84.70
32600;DHT22;19277;51.778;7.912;2023-02-21T06:25:14;20.40;85.10
32600;DHT22;19277;51.778;7.912;2023-02-21T06:27:40;20.40;85.00
32600;DHT22;19277;51.778;7.912;2023-02-21T06:30:06;20.40;85.10
32600;DHT22;19277;51.778;7.912;2023-02-21T06:32:32;20.50;85.50
32600;DHT22;19277;51.778;7.912;2023-02-21T06:34:58;20.40;85.30
32600;DHT22;19277;51.778;7.912;2023-02-21T06:37:23;20.40;85.40
32600;DHT22;19277;51.778;7.912;2023-02-21T06:39:49;20.40;85.60
32600;DHT22;19277;51.778;7.912;2023-02-21T06:42:15;20.40;86.40
32600;DHT22;19277;51.778;7.912;2023-02-21T06:44:46;20.40;86.70
32600;DHT22;19277;51.778;7.912;2023-02-21T06:47:12;20.40;86.40
32600;DHT22;19277;51.778;7.912;2023-02-21T06:49:38;20.40;86.20
32600;DHT22;19277;51.778;7.912;2023-02-21T06:52:04;20.40;86.30
32600;DHT22;19277;51.778;7.912;2023-02-21T06:54:29;20.40;86.00
32600;DHT22;19277;51.778;7.912;2023-02-21T06:56:55;20.40;86.00
32600;DHT22;19277;51.778;7.912;2023-02-21T06:59:21;20.40;86.10
32600;DHT22;19277;51.778;7.912;2023-02-21T07:01:47;20.40;86.10
32600;DHT22;19277;51.778;7.912;2023-02-21T07:04:13;20.50;85.90
32600;DHT22;19277;51.778;7.912;2023-02-21T07:06:38;20.50;85.70
32600;DHT22;19277;51.778;7.912;2023-02-21T07:09:04;20.40;85.70
32600;DHT22;19277;51.778;7.912;2023-02-21T07:11:31;20.50;85.70
32600;DHT22;19277;51.778;7.912;2023-02-21T07:13:58;20.50;85.70
32600;DHT22;19277;51.778;7.912;2023-02-21T07:16:24;20.40;85.50
32600;DHT22;19277;51.778;7.912;2023-02-21T07:18:50;20.50;85.50
32600;DHT22;19277;51.778;7.912;2023-02-21T07:21:16;20.50;85.50
32600;DHT22;19277;51.778;7.912;2023-02-21T07:23:43;20.40;85.40
32600;DHT22;19277;51.778;7.912;2023-02-21T07:26:09;20.40;85.50
32600;DHT22;19277;51.778;7.912;2023-02-21T07:28:35;20.40;85.50
32600;DHT22;19277;51.778;7.912;2023-02-21T07:31:01;20.40;85.50
32600;DHT22;19277;51.778;7.912;2023-02-21T07:33:26;20.40;85.50
32600;DHT22;19277;51.778;7.912;2023-02-21T07:35:52;20.40;85.50
32600;DHT22;19277;51.778;7.912;2023-02-21T07:38:26;20.40;85.60
32600;DHT22;19277;51.778;7.912;2023-02-21T07:40:54;20.40;85.70
32600;DHT22;19277;51.778;7.912;2023-02-21T07:43:19;20.40;85.70
32600;DHT22;19277;51.778;7.912;2023-02-21T07:45:45;20.40;85.80
32600;DHT22;19277;51.778;7.912;2023-02-21T07:48:10;20.40;86.40
32600;DHT22;19277;51.778;7.912;2023-02-21T07:50:42;20.40;85.90
32600;DHT22;19277;51.778;7.912;2023-02-21T07:53:08;20.40;86.00
32600;DHT22;19277;51.778;7.912;2023-02-21T07:55:34;20.40;86.60
32600;DHT22;19277;51.778;7.912;2023-02-21T07:58:01;20.50;86.60
32600;DHT22;19277;51.778;7.912;2023-02-21T08:00:27;20.50;86.70
32600;DHT22;19277;51.778;7.912;2023-02-21T08:02:52;20.50;86.50
32600;DHT22;19277;51.778;7.912;2023-02-21T08:05:18;20.40;86.40
32600;DHT22;19277;51.778;7.912;2023-02-21T08:07:45;20.50;86.60
32600;DHT22;19277;51.778;7.912;2023-02-21T08:10:11;20.50;86.30
32600;DHT22;19277;51.778;7.912;2023-02-21T08:12:37;20.50;86.30
32600;DHT22;19277;51.778;7.912;2023-02-21T08:15:02;20.50;86.20
32600;DHT22;19277;51.778;7.912;2023-02-21T08:17:29;20.50;86.10
32600;DHT22;19277;51.778;7.912;2023-02-21T08:19:55;20.50;86.00
32600;DHT22;19277;51.778;7.912;2023-02-21T08:22:20;20.50;86.00
32600;DHT22;19277;51.778;7.912;2023-02-21T08:24:48;20.50;86.00
32600;DHT22;19277;51.778;7.912;2023-02-21T08:27:14;20.50;86.00
32600;DHT22;19277;51.778;7.912;2023-02-21T08:29:40;20.50;85.70
32600;DHT22;19277;51.778;7.912;2023-02-21T08:32:05;20.50;85.40
32600;DHT22;19277;51.778;7.912;2023-02-21T08:34:31;20.50;85.20
32600;DHT22;19277;51.778;7.912;2023-02-21T08:36:56;20.50;85.00
32600;DHT22;19277;51.778;7.912;2023-02-21T08:39:22;20.50;84.90
32600;DHT22;19277;51.778;7.912;2023-02-21T08:41:48;20.50;85.40
32600;DHT22;19277;51.778;7.912;2023-02-21T08:44:15;18.50;70.30
32600;DHT22;19277;51.778;7.912;2023-02-21T08:46:41;16.30;75.30
32600;DHT22;19277;51.778;7.912;2023-02-21T08:49:08;15.10;87.00
32600;DHT22;19277;51.778;7.912;2023-02-21T08:51:34;15.40;92.00
32600;DHT22;19277;51.778;7.912;2023-02-21T08:54:00;15.90;91.80
32600;DHT22;19277;51.778;7.912;2023-02-21T08:56:27;16.60;91.10
32600;DHT22;19277;51.778;7.912;2023-02-21T08:58:53;17.20;90.40
32600;DHT22;19277;51.778;7.912;2023-02-21T09:01:19;17.70;89.50
32600;DHT22;19277;51.778;7.912;2023-02-21T09:03:45;18.10;88.30
32600;DHT22;19277;51.778;7.912;2023-02-21T09:06:11;18.60;87.20
32600;DHT22;19277;51.778;7.912;2023-02-21T09:08:37;18.80;86.30
32600;DHT22;19277;51.778;7.912;2023-02-21T09:11:03;19.10;85.70
32600;DHT22;19277;51.778;7.912;2023-02-21T09:13:29;19.30;85.10
32600;DHT22;19277;51.778;7.912;2023-02-21T09:15:57;19.50;84.60
32600;DHT22;19277;51.778;7.912;2023-02-21T09:18:23;19.60;84.30
32600;DHT22;19277;51.778;7.912;2023-02-21T09:20:48;19.70;83.90
32600;DHT22;19277;51.778;7.912;2023-02-21T09:23:17;19.80;83.80
32600;DHT22;19277;51.778;7.912;2023-02-21T09:25:46;19.90;83.60
32600;DHT22;19277;51.778;7.912;2023-02-21T09:28:13;20.00;83.70
32600;DHT22;19277;51.778;7.912;2023-02-21T09:30:38;20.10;83.20
32600;DHT22;19277;51.778;7.912;2023-02-21T09:33:04;20.10;83.10
32600;DHT22;19277;51.778;7.912;2023-02-21T09:35:30;20.20;83.00
32600;DHT22;19277;51.778;7.912;2023-02-21T09:37:56;20.30;82.90
32600;DHT22;19277;51.778;7.912;2023-02-21T09:40:58;20.30;82.80
32600;DHT22;19277;51.778;7.912;2023-02-21T09:43:34;20.30;82.70
32600;DHT22;19277;51.778;7.912;2023-02-21T09:46:10;20.40;82.50
32600;DHT22;19277;51.778;7.912;2023-02-21T09:48:37;20.40;82.30
32600;DHT22;19277;51.778;7.912;2023-02-21T09:51:05;20.40;82.10
32600;DHT22;19277;51.778;7.912;2023-02-21T09:53:35;20.40;82.10
32600;DHT22;19277;51.778;7.912;2023-02-21T09:56:06;20.40;81.90
32600;DHT22;19277;51.778;7.912;2023-02-21T09:58:40;20.40;81.80
32600;DHT22;19277;51.778;7.912;2023-02-21T10:01:16;20.40;81.70
32600;DHT22;19277;51.778;7.912;2023-02-21T10:03:58;20.40;81.70
32600;DHT22;19277;51.778;7.912;2023-02-21T10:06:56;20.40;81.60
32600;DHT22;19277;51.778;7.912;2023-02-21T10:20:58;20.40;81.30
32600;DHT22;19277;51.778;7.912;2023-02-21T10:23:46;20.40;81.30
32600;DHT22;19277;51.778;7.912;2023-02-21T10:26:17;20.50;81.20
32600;DHT22;19277;51.778;7.912;2023-02-21T10:28:44;20.50;81.20
32600;DHT22;19277;51.778;7.912;2023-02-21T10:31:35;20.50;81.20
32600;DHT22;19277;51.778;7.912;2023-02-21T10:34:08;20.40;81.10
32600;DHT22;19277;51.778;7.912;2023-02-21T10:36:40;20.40;81.10
32600;DHT22;19277;51.778;7.912;2023-02-21T10:39:16;20.50;81.10
32600;DHT22;19277;51.778;7.912;2023-02-21T10:41:43;20.40;81.10
32600;DHT22;19277;51.778;7.912;2023-02-21T10:44:20;20.50;81.10
32600;DHT22;19277;51.778;7.912;2023-02-21T10:47:07;20.40;81.00
32600;DHT22;19277;51.778;7.912;2023-02-21T10:50:05;20.50;81.00
32600;DHT22;19277;51.778;7.912;2023-02-21T10:52:56;20.40;80.90
32600;DHT22;19277;51.778;7.912;2023-02-21T10:55:22;20.50;81.00
32600;DHT22;19277;51.778;7.912;2023-02-21T10:57:56;20.50;80.90
32600;DHT22;19277;51.778;7.912;2023-02-21T11:00:33;20.40;80.90
32600;DHT22;19277;51.778;7.912;2023-02-21T11:03:22;20.40;80.90
32600;DHT22;19277;51.778;7.912;2023-02-21T11:05:53;20.40;80.90
32600;DHT22;19277;51.778;7.912;2023-02-21T11:08:39;20.40;80.80
32600;DHT22;19277;51.778;7.912;2023-02-21T11:11:05;20.40;80.80
32600;DHT22;19277;51.778;7.912;2023-02-21T11:13:32;20.40;80.80
32600;DHT22;19277;51.778;7.912;2023-02-21T11:18:36;20.40;80.70
32600;DHT22;19277;51.778;7.912;2023-02-21T11:21:18;20.40;80.70
32600;DHT22;19277;51.778;7.912;2023-02-21T11:26:18;20.40;80.60
32600;DHT22;19277;51.778;7.912;2023-02-21T11:28:44;20.40;80.70
32600;DHT22;19277;51.778;7.912;2023-02-21T11:34:03;20.40;80.60
32600;DHT22;19277;51.778;7.912;2023-02-21T11:36:31;20.40;80.60
32600;DHT22;19277;51.778;7.912;2023-02-21T11:42:04;20.40;80.90
32600;DHT22;19277;51.778;7.912;2023-02-21T11:44:48;20.50;80.90
32600;DHT22;19277;51.778;7.912;2023-02-21T11:47:22;20.50;81.10
32600;DHT22;19277;51.778;7.912;2023-02-21T11:52:52;20.50;81.20
32600;DHT22;19277;51.778;7.912;2023-02-21T11:55:22;20.50;81.20
32600;DHT22;19277;51.778;7.912;2023-02-21T12:00:48;20.50;81.30
32600;DHT22;19277;51.778;7.912;2023-02-21T12:14:33;20.60;81.70
32600;DHT22;19277;51.778;7.912;2023-02-21T12:17:10;20.60;81.90
32600;DHT22;19277;51.778;7.912;2023-02-21T12:20:21;20.70;82.00
32600;DHT22;19277;51.778;7.912;2023-02-21T12:26:14;20.70;82.50
32600;DHT22;19277;51.778;7.912;2023-02-21T12:28:58;20.70;82.30
32600;DHT22;19277;51.778;7.912;2023-02-21T12:37:55;20.80;82.80
32600;DHT22;19277;51.778;7.912;2023-02-21T12:43:42;20.80;82.90
32600;DHT22;19277;51.778;7.912;2023-02-21T12:46:15;20.80;83.00
32600;DHT22;19277;51.778;7.912;2023-02-21T12:51:27;20.80;82.90
32600;DHT22;19277;51.778;7.912;2023-02-21T12:54:10;20.80;82.80
32600;DHT22;19277;51.778;7.912;2023-02-21T12:59:24;20.80;82.70
32600;DHT22;19277;51.778;7.912;2023-02-21T13:01:57;20.80;82.70
32600;DHT22;19277;51.778;7.912;2023-02-21T13:08:02;20.80;82.60
32600;DHT22;19277;51.778;7.912;2023-02-21T13:10:40;20.80;82.60
32600;DHT22;19277;51.778;7.912;2023-02-21T13:13:14;20.80;82.50
32600;DHT22;19277;51.778;7.912;2023-02-21T13:15:43;20.80;82.50
32600;DHT22;19277;51.778;7.912;2023-02-21T13:18:17;20.90;82.60
32600;DHT22;19277;51.778;7.912;2023-02-21T13:21:01;20.90;82.50
32600;DHT22;19277;51.778;7.912;2023-02-21T13:29:29;20.90;82.90
32600;DHT22;19277;51.778;7.912;2023-02-21T13:34:28;20.90;83.00
32600;DHT22;19277;51.778;7.912;2023-02-21T13:37:04;20.90;83.00
32600;DHT22;19277;51.778;7.912;2023-02-21T13:39:32;20.90;83.10
32600;DHT22;19277;51.778;7.912;2023-02-21T13:44:42;20.90;83.20
32600;DHT22;19277;51.778;7.912;2023-02-21T13:47:15;21.00;83.10
32600;DHT22;19277;51.778;7.912;2023-02-21T13:49:48;20.90;83.00
32600;DHT22;19277;51.778;7.912;2023-02-21T14:11:20;21.00;82.60
32600;DHT22;19277;51.778;7.912;2023-02-21T14:13:57;21.00;82.60
32600;DHT22;19277;51.778;7.912;2023-02-21T14:16:31;21.00;82.60
32600;DHT22;19277;51.778;7.912;2023-02-21T14:19:09;21.10;82.70
32600;DHT22;19277;51.778;7.912;2023-02-21T14:21:42;21.10;83.00
32600;DHT22;19277;51.778;7.912;2023-02-21T14:29:11;21.10;83.20
32600;DHT22;19277;51.778;7.912;2023-02-21T14:31:54;21.10;83.30
32600;DHT22;19277;51.778;7.912;2023-02-21T14:34:40;21.10;83.10
32600;DHT22;19277;51.778;7.912;2023-02-21T14:45:35;21.10;82.90
32600;DHT22;19277;51.778;7.912;2023-02-21T15:07:19;21.20;83.30
32600;DHT22;19277;51.778;7.912;2023-02-21T15:10:05;21.20;83.20
32600;DHT22;19277;51.778;7.912;2023-02-21T15:12:35;21.20;83.30
32600;DHT22;19277;51.778;7.912;2023-02-21T15:15:03;21.20;83.30
32600;DHT22;19277;51.778;7.912;2023-02-21T15:17:29;21.20;83.30
32600;DHT22;19277;51.778;7.912;2023-02-21T15:20:06;21.20;83.30
32600;DHT22;19277;51.778;7.912;2023-02-21T15:22:37;21.20;83.20
32600;DHT22;19277;51.778;7.912;2023-02-21T15:30:24;21.20;83.10
32600;DHT22;19277;51.778;7.912;2023-02-21T15:33:00;21.20;83.10
32600;DHT22;19277;51.778;7.912;2023-02-21T15:35:32;21.20;83.20
32600;DHT22;19277;51.778;7.912;2023-02-21T15:38:00;21.20;83.20
32600;DHT22;19277;51.778;7.912;2023-02-21T15:40:27;21.20;83.10
32600;DHT22;19277;51.778;7.912;2023-02-21T15:42:54;21.20;83.10
32600;DHT22;19277;51.778;7.912;2023-02-21T15:45:21;21.20;83.10
32600;DHT22;19277;51.778;7.912;2023-02-21T15:47:49;21.20;83.10
32600;DHT22;19277;51.778;7.912;2023-02-21T15:50:25;21.20;83.10
32600;DHT22;19277;51.778;7.912;2023-02-21T15:52:53;21.20;83.10
32600;DHT22;19277;51.778;7.912;2023-02-21T16:00:43;21.20;83.20
32600;DHT22;19277;51.778;7.912;2023-02-21T16:09:02;21.30;83.30
32600;DHT22;19277;51.778;7.912;2023-02-21T16:11:48;21.30;83.50
32600;DHT22;19277;51.778;7.912;2023-02-21T16:17:20;21.30;83.50
32600;DHT22;19277;51.778;7.912;2023-02-21T16:19:55;21.30;83.50
32600;DHT22;19277;51.778;7.912;2023-02-21T16:22:38;21.30;83.40
32600;DHT22;19277;51.778;7.912;2023-02-21T16:27:41;21.30;83.40
32600;DHT22;19277;51.778;7.912;2023-02-21T16:30:12;21.30;83.30
32600;DHT22;19277;51.778;7.912;2023-02-21T16:32:40;21.30;83.20
32600;DHT22;19277;51.778;7.912;2023-02-21T16:35:10;21.30;83.20
32600;DHT22;19277;51.778;7.912;2023-02-21T16:37:36;21.30;83.20
32600;DHT22;19277;51.778;7.912;2023-02-21T16:40:10;21.30;83.30
32600;DHT22;19277;51.778;7.912;2023-02-21T16:42:36;21.30;83.30
32600;DHT22;19277;51.778;7.912;2023-02-21T16:45:02;21.30;83.20
32600;DHT22;19277;51.778;7.912;2023-02-21T16:47:28;21.30;83.30
32600;DHT22;19277;51.778;7.912;2023-02-21T16:49:53;21.30;83.30
32600;DHT22;19277;51.778;7.912;2023-02-21T16:52:19;21.30;83.30
32600;DHT22;19277;51.778;7.912;2023-02-21T16:54:44;21.30;83.40
32600;DHT22;19277;51.778;7.912;2023-02-21T16:57:10;21.30;83.40
32600;DHT22;19277;51.778;7.912;2023-02-21T16:59:36;21.40;83.50
32600;DHT22;19277;51.778;7.912;2023-02-21T17:02:02;21.40;83.50
32600;DHT22;19277;51.778;7.912;2023-02-21T17:04:29;21.40;83.80
32600;DHT22;19277;51.778;7.912;2023-02-21T17:07:04;21.40;83.70
32600;DHT22;19277;51.778;7.912;2023-02-21T17:09:33;21.40;83.60
32600;DHT22;19277;51.778;7.912;2023-02-21T17:12:06;21.40;83.50
32600;DHT22;19277;51.778;7.912;2023-02-21T17:14:32;21.40;83.50
32600;DHT22;19277;51.778;7.912;2023-02-21T17:16:58;21.40;83.50
32600;DHT22;19277;51.778;7.912;2023-02-21T17:19:24;21.40;83.40
32600;DHT22;19277;51.778;7.912;2023-02-21T17:21:50;21.40;83.30
32600;DHT22;19277;51.778;7.912;2023-02-21T17:24:16;21.40;83.20
32600;DHT22;19277;51.778;7.912;2023-02-21T17:26:42;21.40;83.20
32600;DHT22;19277;51.778;7.912;2023-02-21T17:29:09;21.40;83.30
32600;DHT22;19277;51.778;7.912;2023-02-21T17:31:35;21.40;83.20
32600;DHT22;19277;51.778;7.912;2023-02-21T17:34:01;21.40;83.20
32600;DHT22;19277;51.778;7.912;2023-02-21T17:36:27;21.40;83.20
32600;DHT22;19277;51.778;7.912;2023-02-21T17:38:53;21.40;83.20
32600;DHT22;19277;51.778;7.912;2023-02-21T17:41:19;21.50;83.20
32600;DHT22;19277;51.778;7.912;2023-02-21T17:43:45;21.50;83.20
32600;DHT22;19277;51.778;7.912;2023-02-21T17:46:12;21.50;83.30
32600;DHT22;19277;51.778;7.912;2023-02-21T17:48:40;21.50;83.30
32600;DHT22;19277;51.778;7.912;2023-02-21T17:51:06;21.50;83.70
32600;DHT22;19277;51.778;7.912;2023-02-21T17:53:32;21.50;83.10
32600;DHT22;19277;51.778;7.912;2023-02-21T17:55:57;21.50;83.10
32600;DHT22;19277;51.778;7.912;2023-02-21T17:58:28;21.50;83.00
32600;DHT22;19277;51.778;7.912;2023-02-21T18:00:58;21.50;82.90
32600;DHT22;19277;51.778;7.912;2023-02-21T18:03:24;21.50;82.80
32600;DHT22;19277;51.778;7.912;2023-02-21T18:05:50;21.40;82.70
32600;DHT22;19277;51.778;7.912;2023-02-21T18:08:16;21.40;82.50
32600;DHT22;19277;51.778;7.912;2023-02-21T18:10:43;21.40;82.50
32600;DHT22;19277;51.778;7.912;2023-02-21T18:13:12;21.40;82.40
32600;DHT22;19277;51.778;7.912;2023-02-21T18:15:38;21.40;82.40
32600;DHT22;19277;51.778;7.912;2023-02-21T18:18:03;21.40;82.40
32600;DHT22;19277;51.778;7.912;2023-02-21T18:20:31;21.40;82.30
32600;DHT22;19277;51.778;7.912;2023-02-21T18:22:56;21.40;82.30
32600;DHT22;19277;51.778;7.912;2023-02-21T18:25:22;21.30;82.20
32600;DHT22;19277;51.778;7.912;2023-02-21T18:27:49;21.30;82.20
32600;DHT22;19277;51.778;7.912;2023-02-21T18:30:16;21.30;82.20
32600;DHT22;19277;51.778;7.912;2023-02-21T18:32:42;21.30;82.20
32600;DHT22;19277;51.778;7.912;2023-02-21T18:35:08;21.30;82.20
32600;DHT22;19277;51.778;7.912;2023-02-21T18:37:33;21.30;82.20
32600;DHT22;19277;51.778;7.912;2023-02-21T18:40:00;21.20;82.10
32600;DHT22;19277;51.778;7.912;2023-02-21T18:42:25;21.30;82.20
32600;DHT22;19277;51.778;7.912;2023-02-21T18:44:51;21.20;82.10
32600;DHT22;19277;51.778;7.912;2023-02-21T18:47:17;21.20;82.20
32600;DHT22;19277;51.778;7.912;2023-02-21T18:49:44;21.20;82.20
32600;DHT22;19277;51.778;7.912;2023-02-21T18:52:11;21.20;82.20
32600;DHT22;19277;51.778;7.912;2023-02-21T18:54:49;21.20;82.20
32600;DHT22;19277;51.778;7.912;2023-02-21T18:57:19;21.20;82.20